sensor_id;sensor_type;location;lat;lon;timestamp;P1;durP1;ratioP1;P2;durP2;ratioP2
72483;SDS011;74199;52.014;5.430;2024-03-08T00:00:09;17.50;;;9.13;;
72483;SDS011;74199;52.014;5.430;2024-03-08T00:02:43;18.75;;;10.02;;
72483;SDS011;74199;52.014;5.430;2024-03-08T00:05:11;16.08;;;9.20;;
72483;SDS011;74199;52.014;5.430;2024-03-08T00:07:39;15.82;;;8.43;;
72483;SDS011;74199;52.014;5.430;2024-03-08T00:10:07;18.60;;;10.18;;
72483;SDS011;74199;52.014;5.430;2024-03-08T00:15:13;17.25;;;9.23;;
72483;SDS011;74199;52.014;5.430;2024-03-08T00:17:44;17.67;;;8.95;;
72483;SDS011;74199;52.014;5.430;2024-03-08T00:20:11;18.35;;;9.63;;
72483;SDS011;74199;52.014;5.430;2024-03-08T00:22:40;19.42;;;9.65;;
72483;SDS011;74199;52.014;5.430;2024-03-08T00:25:07;22.20;;;9.27;;
72483;SDS011;74199;52.014;5.430;2024-03-08T00:27:38;15.98;;;8.48;;
72483;SDS011;74199;52.014;5.430;2024-03-08T00:30:05;17.48;;;9.20;;
72483;SDS011;74199;52.014;5.430;2024-03-08T00:32:33;17.02;;;10.15;;
72483;SDS011;74199;52.014;5.430;2024-03-08T00:35:01;19.05;;;9.27;;
72483;SDS011;74199;52.014;5.430;2024-03-08T00:37:28;17.48;;;9.38;;
72483;SDS011;74199;52.014;5.430;2024-03-08T00:39:55;18.08;;;8.95;;
72483;SDS011;74199;52.014;5.430;2024-03-08T00:42:22;14.10;;;8.55;;
72483;SDS011;74199;52.014;5.430;2024-03-08T00:44:49;19.55;;;10.02;;
72483;SDS011;74199;52.014;5.430;2024-03-08T00:47:18;16.15;;;9.30;;
72483;SDS011;74199;52.014;5.430;2024-03-08T00:49:45;16.23;;;8.70;;
72483;SDS011;74199;52.014;5.430;2024-03-08T00:52:13;16.08;;;9.70;;
72483;SDS011;74199;52.014;5.430;2024-03-08T00:54:40;16.08;;;8.80;;
72483;SDS011;74199;52.014;5.430;2024-03-08T00:57:09;16.48;;;9.32;;
72483;SDS011;74199;52.014;5.430;2024-03-08T00:59:39;17.67;;;9.98;;
72483;SDS011;74199;52.014;5.430;2024-03-08T01:02:06;17.80;;;9.27;;
72483;SDS011;74199;52.014;5.430;2024-03-08T01:04:35;16.98;;;9.50;;
72483;SDS011;74199;52.014;5.430;2024-03-08T01:07:02;16.95;;;9.25;;
72483;SDS011;74199;52.014;5.430;2024-03-08T01:09:29;17.77;;;10.00;;
72483;SDS011;74199;52.014;5.430;2024-03-08T01:11:56;15.95;;;9.50;;
72483;SDS011;74199;52.014;5.430;2024-03-08T01:14:24;16.13;;;8.82;;
72483;SDS011;74199;52.014;5.430;2024-03-08T01:16:55;17.85;;;8.93;;
72483;SDS011;74199;52.014;5.430;2024-03-08T01:19:22;17.85;;;9.60;;
72483;SDS011;74199;52.014;5.430;2024-03-08T01:21:50;17.70;;;9.30;;
72483;SDS011;74199;52.014;5.430;2024-03-08T01:24:17;15.30;;;8.25;;
72483;SDS011;74199;52.014;5.430;2024-03-08T01:26:44;16.83;;;9.32;;
72483;SDS011;74199;52.014;5.430;2024-03-08T01:29:12;15.73;;;8.60;;
72483;SDS011;74199;52.014;5.430;2024-03-08T01:31:40;15.75;;;8.63;;
72483;SDS011;74199;52.014;5.430;2024-03-08T01:34:07;16.42;;;8.68;;
72483;SDS011;74199;52.014;5.430;2024-03-08T01:36:34;16.88;;;9.52;;
72483;SDS011;74199;52.014;5.430;2024-03-08T01:39:03;15.93;;;9.55;;
72483;SDS011;74199;52.014;5.430;2024-03-08T01:41:35;16.60;;;9.18;;
72483;SDS011;74199;52.014;5.430;2024-03-08T01:44:02;14.07;;;8.20;;
72483;SDS011;74199;52.014;5.430;2024-03-08T01:46:30;17.55;;;9.82;;
72483;SDS011;74199;52.014;5.430;2024-03-08T01:48:57;18.55;;;9.05;;
72483;SDS011;74199;52.014;5.430;2024-03-08T01:51:24;16.52;;;9.20;;
72483;SDS011;74199;52.014;5.430;2024-03-08T01:53:51;15.70;;;9.07;;
72483;SDS011;74199;52.014;5.430;2024-03-08T01:56:19;15.32;;;8.85;;
72483;SDS011;74199;52.014;5.430;2024-03-08T01:58:46;18.05;;;8.90;;
72483;SDS011;74199;52.014;5.430;2024-03-08T02:01:14;16.88;;;8.85;;
72483;SDS011;74199;52.014;5.430;2024-03-08T02:03:42;16.80;;;9.20;;
72483;SDS011;74199;52.014;5.430;2024-03-08T02:06:11;16.60;;;9.55;;
72483;SDS011;74199;52.014;5.430;2024-03-08T02:08:44;19.02;;;9.73;;
72483;SDS011;74199;52.014;5.430;2024-03-08T02:11:13;19.77;;;9.05;;
72483;SDS011;74199;52.014;5.430;2024-03-08T02:13:41;14.23;;;8.45;;
72483;SDS011;74199;52.014;5.430;2024-03-08T02:16:09;16.23;;;8.95;;
72483;SDS011;74199;52.014;5.430;2024-03-08T02:18:36;17.77;;;9.18;;
72483;SDS011;74199;52.014;5.430;2024-03-08T02:21:06;16.08;;;8.82;;
72483;SDS011;74199;52.014;5.430;2024-03-08T02:23:35;16.83;;;9.43;;
72483;SDS011;74199;52.014;5.430;2024-03-08T02:26:03;15.25;;;9.25;;
72483;SDS011;74199;52.014;5.430;2024-03-08T02:28:31;15.48;;;8.85;;
72483;SDS011;74199;52.014;5.430;2024-03-08T02:30:58;17.20;;;9.23;;
72483;SDS011;74199;52.014;5.430;2024-03-08T02:33:26;14.70;;;7.97;;
72483;SDS011;74199;52.014;5.430;2024-03-08T02:35:54;16.42;;;9.35;;
72483;SDS011;74199;52.014;5.430;2024-03-08T02:38:22;14.35;;;8.43;;
72483;SDS011;74199;52.014;5.430;2024-03-08T02:40:51;14.48;;;8.32;;
72483;SDS011;74199;52.014;5.430;2024-03-08T02:43:20;14.93;;;8.85;;
72483;SDS011;74199;52.014;5.430;2024-03-08T02:45:51;15.77;;;9.05;;
72483;SDS011;74199;52.014;5.430;2024-03-08T02:48:21;14.60;;;8.38;;
72483;SDS011;74199;52.014;5.430;2024-03-08T02:50:49;14.88;;;8.88;;
72483;SDS011;74199;52.014;5.430;2024-03-08T02:53:17;15.38;;;9.00;;
72483;SDS011;74199;52.014;5.430;2024-03-08T02:55:45;14.48;;;9.45;;
72483;SDS011;74199;52.014;5.430;2024-03-08T02:58:13;14.43;;;9.15;;
72483;SDS011;74199;52.014;5.430;2024-03-08T03:00:41;14.95;;;9.35;;
72483;SDS011;74199;52.014;5.430;2024-03-08T03:03:11;15.77;;;9.27;;
72483;SDS011;74199;52.014;5.430;2024-03-08T03:05:38;16.95;;;9.02;;
72483;SDS011;74199;52.014;5.430;2024-03-08T03:08:12;15.27;;;9.32;;
72483;SDS011;74199;52.014;5.430;2024-03-08T03:10:39;13.68;;;9.07;;
72483;SDS011;74199;52.014;5.430;2024-03-08T03:13:06;16.08;;;9.20;;
72483;SDS011;74199;52.014;5.430;2024-03-08T03:15:35;19.50;;;8.57;;
72483;SDS011;74199;52.014;5.430;2024-03-08T03:18:03;14.63;;;8.40;;
72483;SDS011;74199;52.014;5.430;2024-03-08T03:20:34;14.93;;;8.95;;
72483;SDS011;74199;52.014;5.430;2024-03-08T03:23:07;13.20;;;9.30;;
72483;SDS011;74199;52.014;5.430;2024-03-08T03:25:35;14.55;;;8.95;;
72483;SDS011;74199;52.014;5.430;2024-03-08T03:28:05;16.40;;;9.32;;
72483;SDS011;74199;52.014;5.430;2024-03-08T03:30:33;14.13;;;9.20;;
72483;SDS011;74199;52.014;5.430;2024-03-08T03:33:00;14.27;;;9.40;;
72483;SDS011;74199;52.014;5.430;2024-03-08T03:35:28;15.43;;;9.15;;
72483;SDS011;74199;52.014;5.430;2024-03-08T03:37:56;13.93;;;9.15;;
72483;SDS011;74199;52.014;5.430;2024-03-08T03:40:38;12.95;;;8.68;;
72483;SDS011;74199;52.014;5.430;2024-03-08T03:43:07;14.40;;;9.50;;
72483;SDS011;74199;52.014;5.430;2024-03-08T03:45:36;14.18;;;8.63;;
72483;SDS011;74199;52.014;5.430;2024-03-08T03:48:04;13.85;;;9.15;;
72483;SDS011;74199;52.014;5.430;2024-03-08T03:50:37;13.80;;;8.73;;
72483;SDS011;74199;52.014;5.430;2024-03-08T03:53:05;15.18;;;9.02;;
72483;SDS011;74199;52.014;5.430;2024-03-08T03:55:36;15.02;;;9.05;;
72483;SDS011;74199;52.014;5.430;2024-03-08T03:58:07;14.73;;;9.20;;
72483;SDS011;74199;52.014;5.430;2024-03-08T04:00:34;14.65;;;9.35;;
72483;SDS011;74199;52.014;5.430;2024-03-08T04:03:01;16.95;;;9.35;;
72483;SDS011;74199;52.014;5.430;2024-03-08T04:05:28;15.48;;;9.20;;
72483;SDS011;74199;52.014;5.430;2024-03-08T04:07:55;14.80;;;9.43;;
72483;SDS011;74199;52.014;5.430;2024-03-08T04:10:23;12.85;;;8.68;;
72483;SDS011;74199;52.014;5.430;2024-03-08T04:12:50;14.85;;;9.35;;
72483;SDS011;74199;52.014;5.430;2024-03-08T04:15:17;13.95;;;9.00;;
72483;SDS011;74199;52.014;5.430;2024-03-08T04:17:44;14.32;;;8.85;;
72483;SDS011;74199;52.014;5.430;2024-03-08T04:20:13;14.07;;;9.02;;
72483;SDS011;74199;52.014;5.430;2024-03-08T04:22:41;14.10;;;9.10;;
72483;SDS011;74199;52.014;5.430;2024-03-08T04:25:10;13.98;;;9.13;;
72483;SDS011;74199;52.014;5.430;2024-03-08T04:27:37;16.30;;;9.77;;
72483;SDS011;74199;52.014;5.430;2024-03-08T04:30:04;14.18;;;9.25;;
72483;SDS011;74199;52.014;5.430;2024-03-08T04:32:34;12.68;;;8.75;;
72483;SDS011;74199;52.014;5.430;2024-03-08T04:35:02;13.90;;;8.73;;
72483;SDS011;74199;52.014;5.430;2024-03-08T04:37:30;14.65;;;9.77;;
72483;SDS011;74199;52.014;5.430;2024-03-08T04:39:57;13.30;;;8.55;;
72483;SDS011;74199;52.014;5.430;2024-03-08T04:42:25;14.25;;;9.23;;
72483;SDS011;74199;52.014;5.430;2024-03-08T04:44:55;13.30;;;9.00;;
72483;SDS011;74199;52.014;5.430;2024-03-08T04:47:22;15.65;;;9.32;;
72483;SDS011;74199;52.014;5.430;2024-03-08T04:49:49;15.45;;;9.75;;
72483;SDS011;74199;52.014;5.430;2024-03-08T04:52:16;12.82;;;8.90;;
72483;SDS011;74199;52.014;5.430;2024-03-08T04:54:43;15.98;;;9.55;;
72483;SDS011;74199;52.014;5.430;2024-03-08T04:57:13;15.35;;;9.40;;
72483;SDS011;74199;52.014;5.430;2024-03-08T04:59:41;14.02;;;9.02;;
72483;SDS011;74199;52.014;5.430;2024-03-08T05:02:08;16.25;;;9.40;;
72483;SDS011;74199;52.014;5.430;2024-03-08T05:04:35;13.13;;;8.48;;
72483;SDS011;74199;52.014;5.430;2024-03-08T05:07:02;17.10;;;9.25;;
72483;SDS011;74199;52.014;5.430;2024-03-08T05:09:30;15.52;;;9.43;;
72483;SDS011;74199;52.014;5.430;2024-03-08T05:11:58;14.85;;;8.57;;
72483;SDS011;74199;52.014;5.430;2024-03-08T05:14:25;15.30;;;9.35;;
72483;SDS011;74199;52.014;5.430;2024-03-08T05:16:52;14.82;;;8.73;;
72483;SDS011;74199;52.014;5.430;2024-03-08T05:19:20;15.70;;;9.75;;
72483;SDS011;74199;52.014;5.430;2024-03-08T05:21:48;17.00;;;9.32;;
72483;SDS011;74199;52.014;5.430;2024-03-08T05:24:16;13.90;;;9.13;;
72483;SDS011;74199;52.014;5.430;2024-03-08T05:26:45;14.65;;;9.18;;
72483;SDS011;74199;52.014;5.430;2024-03-08T05:29:13;18.58;;;10.20;;
72483;SDS011;74199;52.014;5.430;2024-03-08T05:31:48;13.77;;;9.57;;
72483;SDS011;74199;52.014;5.430;2024-03-08T05:34:16;15.15;;;9.30;;
72483;SDS011;74199;52.014;5.430;2024-03-08T05:36:43;12.45;;;9.00;;
72483;SDS011;74199;52.014;5.430;2024-03-08T05:39:12;15.48;;;9.55;;
72483;SDS011;74199;52.014;5.430;2024-03-08T05:41:40;16.48;;;9.70;;
72483;SDS011;74199;52.014;5.430;2024-03-08T05:44:08;13.98;;;9.40;;
72483;SDS011;74199;52.014;5.430;2024-03-08T05:46:36;16.50;;;9.05;;
72483;SDS011;74199;52.014;5.430;2024-03-08T05:49:03;15.30;;;9.30;;
72483;SDS011;74199;52.014;5.430;2024-03-08T05:51:37;17.45;;;10.02;;
72483;SDS011;74199;52.014;5.430;2024-03-08T05:54:09;13.70;;;8.82;;
72483;SDS011;74199;52.014;5.430;2024-03-08T05:56:39;17.48;;;9.55;;
72483;SDS011;74199;52.014;5.430;2024-03-08T05:59:11;14.18;;;9.00;;
72483;SDS011;74199;52.014;5.430;2024-03-08T06:01:38;12.90;;;8.93;;
72483;SDS011;74199;52.014;5.430;2024-03-08T06:04:08;15.70;;;9.25;;
72483;SDS011;74199;52.014;5.430;2024-03-08T06:06:38;19.73;;;8.85;;
72483;SDS011;74199;52.014;5.430;2024-03-08T06:09:06;16.45;;;8.98;;
72483;SDS011;74199;52.014;5.430;2024-03-08T06:11:40;14.18;;;9.27;;
72483;SDS011;74199;52.014;5.430;2024-03-08T06:14:09;14.88;;;9.05;;
72483;SDS011;74199;52.014;5.430;2024-03-08T06:16:36;16.23;;;10.25;;
72483;SDS011;74199;52.014;5.430;2024-03-08T06:19:04;19.25;;;10.23;;
72483;SDS011;74199;52.014;5.430;2024-03-08T06:21:32;14.05;;;8.95;;
72483;SDS011;74199;52.014;5.430;2024-03-08T06:23:59;14.48;;;9.25;;
72483;SDS011;74199;52.014;5.430;2024-03-08T06:26:26;14.57;;;9.27;;
72483;SDS011;74199;52.014;5.430;2024-03-08T06:28:57;13.23;;;8.95;;
72483;SDS011;74199;52.014;5.430;2024-03-08T06:31:25;16.55;;;9.38;;
72483;SDS011;74199;52.014;5.430;2024-03-08T06:33:52;15.18;;;9.07;;
72483;SDS011;74199;52.014;5.430;2024-03-08T06:36:22;13.63;;;9.23;;
72483;SDS011;74199;52.014;5.430;2024-03-08T06:38:49;13.20;;;8.95;;
72483;SDS011;74199;52.014;5.430;2024-03-08T06:41:17;14.60;;;8.98;;
72483;SDS011;74199;52.014;5.430;2024-03-08T06:43:44;15.77;;;8.80;;
72483;SDS011;74199;52.014;5.430;2024-03-08T06:46:14;14.20;;;9.77;;
72483;SDS011;74199;52.014;5.430;2024-03-08T06:48:41;14.38;;;9.25;;
72483;SDS011;74199;52.014;5.430;2024-03-08T06:51:08;14.73;;;9.35;;
72483;SDS011;74199;52.014;5.430;2024-03-08T06:53:37;14.43;;;9.82;;
72483;SDS011;74199;52.014;5.430;2024-03-08T06:56:07;17.67;;;9.88;;
72483;SDS011;74199;52.014;5.430;2024-03-08T06:58:35;15.27;;;9.30;;
72483;SDS011;74199;52.014;5.430;2024-03-08T07:01:02;16.17;;;9.40;;
72483;SDS011;74199;52.014;5.430;2024-03-08T07:03:31;15.82;;;9.82;;
72483;SDS011;74199;52.014;5.430;2024-03-08T07:05:59;13.05;;;9.30;;
72483;SDS011;74199;52.014;5.430;2024-03-08T07:08:28;14.48;;;9.13;;
72483;SDS011;74199;52.014;5.430;2024-03-08T07:10:56;14.32;;;9.30;;
72483;SDS011;74199;52.014;5.430;2024-03-08T07:13:25;14.85;;;9.13;;
72483;SDS011;74199;52.014;5.430;2024-03-08T07:15:55;14.80;;;9.63;;
72483;SDS011;74199;52.014;5.430;2024-03-08T07:18:22;12.85;;;9.05;;
72483;SDS011;74199;52.014;5.430;2024-03-08T07:20:50;14.88;;;9.48;;
72483;SDS011;74199;52.014;5.430;2024-03-08T07:23:17;15.23;;;9.73;;
72483;SDS011;74199;52.014;5.430;2024-03-08T07:26:03;16.85;;;8.02;;
72483;SDS011;74199;52.014;5.430;2024-03-08T07:28:30;16.00;;;9.02;;
72483;SDS011;74199;52.014;5.430;2024-03-08T07:30:58;15.05;;;8.65;;
72483;SDS011;74199;52.014;5.430;2024-03-08T07:33:39;14.93;;;8.45;;
72483;SDS011;74199;52.014;5.430;2024-03-08T07:36:06;15.82;;;8.63;;
72483;SDS011;74199;52.014;5.430;2024-03-08T07:38:35;14.50;;;9.13;;
72483;SDS011;74199;52.014;5.430;2024-03-08T07:41:02;18.77;;;9.88;;
72483;SDS011;74199;52.014;5.430;2024-03-08T07:43:31;16.45;;;10.05;;
72483;SDS011;74199;52.014;5.430;2024-03-08T07:45:59;20.92;;;9.60;;
72483;SDS011;74199;52.014;5.430;2024-03-08T07:48:26;27.35;;;11.95;;
72483;SDS011;74199;52.014;5.430;2024-03-08T07:50:53;22.98;;;12.82;;
72483;SDS011;74199;52.014;5.430;2024-03-08T07:53:21;20.83;;;12.43;;
72483;SDS011;74199;52.014;5.430;2024-03-08T07:55:48;25.40;;;12.95;;
72483;SDS011;74199;52.014;5.430;2024-03-08T07:58:15;20.30;;;12.75;;
72483;SDS011;74199;52.014;5.430;2024-03-08T08:00:42;27.48;;;16.00;;
72483;SDS011;74199;52.014;5.430;2024-03-08T08:03:10;25.55;;;16.90;;
72483;SDS011;74199;52.014;5.430;2024-03-08T08:05:37;27.63;;;16.55;;
72483;SDS011;74199;52.014;5.430;2024-03-08T08:08:05;25.92;;;16.48;;
72483;SDS011;74199;52.014;5.430;2024-03-08T08:10:34;27.45;;;15.45;;
72483;SDS011;74199;52.014;5.430;2024-03-08T08:13:01;24.90;;;14.90;;
72483;SDS011;74199;52.014;5.430;2024-03-08T08:15:31;22.23;;;13.95;;
72483;SDS011;74199;52.014;5.430;2024-03-08T08:18:01;21.67;;;13.52;;
72483;SDS011;74199;52.014;5.430;2024-03-08T08:20:32;19.27;;;12.93;;
72483;SDS011;74199;52.014;5.430;2024-03-08T08:22:59;20.60;;;12.48;;
72483;SDS011;74199;52.014;5.430;2024-03-08T08:25:26;19.58;;;12.27;;
72483;SDS011;74199;52.014;5.430;2024-03-08T08:27:53;19.42;;;12.65;;
72483;SDS011;74199;52.014;5.430;2024-03-08T08:30:21;19.42;;;11.85;;
72483;SDS011;74199;52.014;5.430;2024-03-08T08:32:48;19.05;;;11.93;;
72483;SDS011;74199;52.014;5.430;2024-03-08T08:35:16;20.98;;;11.95;;
72483;SDS011;74199;52.014;5.430;2024-03-08T08:37:45;18.45;;;11.70;;
72483;SDS011;74199;52.014;5.430;2024-03-08T08:40:12;21.15;;;12.13;;
72483;SDS011;74199;52.014;5.430;2024-03-08T08:42:44;20.52;;;11.52;;
72483;SDS011;74199;52.014;5.430;2024-03-08T08:45:15;19.20;;;11.65;;
72483;SDS011;74199;52.014;5.430;2024-03-08T08:47:50;20.20;;;10.85;;
72483;SDS011;74199;52.014;5.430;2024-03-08T08:50:16;16.50;;;11.10;;
72483;SDS011;74199;52.014;5.430;2024-03-08T08:52:50;19.65;;;11.63;;
72483;SDS011;74199;52.014;5.430;2024-03-08T08:55:17;18.33;;;11.52;;
72483;SDS011;74199;52.014;5.430;2024-03-08T08:57:47;20.08;;;12.25;;
72483;SDS011;74199;52.014;5.430;2024-03-08T09:00:15;18.13;;;11.57;;
72483;SDS011;74199;52.014;5.430;2024-03-08T09:02:42;19.02;;;10.73;;
72483;SDS011;74199;52.014;5.430;2024-03-08T09:05:10;17.77;;;11.07;;
72483;SDS011;74199;52.014;5.430;2024-03-08T09:07:43;19.63;;;12.05;;
72483;SDS011;74199;52.014;5.430;2024-03-08T09:10:11;18.70;;;10.88;;
72483;SDS011;74199;52.014;5.430;2024-03-08T09:12:41;17.52;;;11.00;;
72483;SDS011;74199;52.014;5.430;2024-03-08T09:15:09;18.13;;;10.45;;
72483;SDS011;74199;52.014;5.430;2024-03-08T09:17:38;17.50;;;10.80;;
72483;SDS011;74199;52.014;5.430;2024-03-08T09:20:10;17.45;;;10.90;;
72483;SDS011;74199;52.014;5.430;2024-03-08T09:22:44;18.45;;;10.73;;
72483;SDS011;74199;52.014;5.430;2024-03-08T09:25:12;19.38;;;11.13;;
72483;SDS011;74199;52.014;5.430;2024-03-08T09:27:39;17.83;;;10.95;;
72483;SDS011;74199;52.014;5.430;2024-03-08T09:30:07;15.75;;;10.00;;
72483;SDS011;74199;52.014;5.430;2024-03-08T09:32:35;17.15;;;11.20;;
72483;SDS011;74199;52.014;5.430;2024-03-08T09:35:03;16.38;;;10.55;;
72483;SDS011;74199;52.014;5.430;2024-03-08T09:37:33;15.05;;;9.82;;
72483;SDS011;74199;52.014;5.430;2024-03-08T09:40:01;15.80;;;10.68;;
72483;SDS011;74199;52.014;5.430;2024-03-08T09:42:31;17.70;;;10.27;;
72483;SDS011;74199;52.014;5.430;2024-03-08T09:44:58;16.33;;;10.18;;
72483;SDS011;74199;52.014;5.430;2024-03-08T09:47:25;16.23;;;9.68;;
72483;SDS011;74199;52.014;5.430;2024-03-08T09:50:00;18.23;;;10.05;;
72483;SDS011;74199;52.014;5.430;2024-03-08T09:52:27;18.85;;;10.30;;
72483;SDS011;74199;52.014;5.430;2024-03-08T09:54:57;16.55;;;10.30;;
72483;SDS011;74199;52.014;5.430;2024-03-08T09:57:25;17.00;;;10.20;;
72483;SDS011;74199;52.014;5.430;2024-03-08T09:59:52;15.32;;;9.65;;
72483;SDS011;74199;52.014;5.430;2024-03-08T10:02:19;17.92;;;10.35;;
72483;SDS011;74199;52.014;5.430;2024-03-08T10:04:47;17.88;;;10.32;;
72483;SDS011;74199;52.014;5.430;2024-03-08T10:07:15;17.95;;;10.32;;
72483;SDS011;74199;52.014;5.430;2024-03-08T10:09:42;16.17;;;10.45;;
72483;SDS011;74199;52.014;5.430;2024-03-08T10:12:16;15.25;;;9.88;;
72483;SDS011;74199;52.014;5.430;2024-03-08T10:14:43;18.45;;;10.50;;
72483;SDS011;74199;52.014;5.430;2024-03-08T10:17:10;16.80;;;10.00;;
72483;SDS011;74199;52.014;5.430;2024-03-08T10:19:37;15.90;;;9.50;;
72483;SDS011;74199;52.014;5.430;2024-03-08T10:22:05;17.77;;;9.95;;
72483;SDS011;74199;52.014;5.430;2024-03-08T10:24:33;15.05;;;10.05;;
72483;SDS011;74199;52.014;5.430;2024-03-08T10:27:04;16.58;;;9.70;;
72483;SDS011;74199;52.014;5.430;2024-03-08T10:29:32;17.02;;;9.68;;
72483;SDS011;74199;52.014;5.430;2024-03-08T10:31:59;14.13;;;9.10;;
72483;SDS011;74199;52.014;5.430;2024-03-08T10:34:28;18.48;;;9.55;;
72483;SDS011;74199;52.014;5.430;2024-03-08T10:36:57;15.50;;;9.40;;
72483;SDS011;74199;52.014;5.430;2024-03-08T10:39:37;14.80;;;8.80;;
72483;SDS011;74199;52.014;5.430;2024-03-08T10:42:04;15.88;;;9.35;;
72483;SDS011;74199;52.014;5.430;2024-03-08T10:44:49;15.20;;;9.20;;
72483;SDS011;74199;52.014;5.430;2024-03-08T10:47:28;16.13;;;9.55;;
72483;SDS011;74199;52.014;5.430;2024-03-08T10:50:08;13.52;;;8.95;;
72483;SDS011;74199;52.014;5.430;2024-03-08T10:52:40;16.02;;;9.45;;
72483;SDS011;74199;52.014;5.430;2024-03-08T10:55:07;15.52;;;9.27;;
72483;SDS011;74199;52.014;5.430;2024-03-08T10:57:39;15.05;;;9.40;;
72483;SDS011;74199;52.014;5.430;2024-03-08T11:00:08;15.07;;;9.10;;
72483;SDS011;74199;52.014;5.430;2024-03-08T11:02:38;14.73;;;9.75;;
72483;SDS011;74199;52.014;5.430;2024-03-08T11:05:09;14.35;;;9.10;;
72483;SDS011;74199;52.014;5.430;2024-03-08T11:07:42;14.80;;;9.55;;
72483;SDS011;74199;52.014;5.430;2024-03-08T11:10:18;15.30;;;8.77;;
72483;SDS011;74199;52.014;5.430;2024-03-08T11:12:46;14.63;;;9.48;;
72483;SDS011;74199;52.014;5.430;2024-03-08T11:15:14;16.17;;;9.32;;
72483;SDS011;74199;52.014;5.430;2024-03-08T11:17:48;14.63;;;9.15;;
72483;SDS011;74199;52.014;5.430;2024-03-08T11:20:19;15.60;;;9.25;;
72483;SDS011;74199;52.014;5.430;2024-03-08T11:22:48;14.13;;;8.98;;
72483;SDS011;74199;52.014;5.430;2024-03-08T11:25:30;14.15;;;8.73;;
72483;SDS011;74199;52.014;5.430;2024-03-08T11:30:46;12.82;;;8.43;;
72483;SDS011;74199;52.014;5.430;2024-03-08T11:33:34;12.23;;;8.02;;
72483;SDS011;74199;52.014;5.430;2024-03-08T11:36:03;14.70;;;9.10;;
72483;SDS011;74199;52.014;5.430;2024-03-08T11:38:43;13.27;;;8.40;;
72483;SDS011;74199;52.014;5.430;2024-03-08T11:41:11;12.98;;;8.02;;
72483;SDS011;74199;52.014;5.430;2024-03-08T11:43:44;13.15;;;8.57;;
72483;SDS011;74199;52.014;5.430;2024-03-08T11:46:12;15.48;;;8.93;;
72483;SDS011;74199;52.014;5.430;2024-03-08T11:48:41;12.60;;;8.07;;
72483;SDS011;74199;52.014;5.430;2024-03-08T11:51:09;14.63;;;8.50;;
72483;SDS011;74199;52.014;5.430;2024-03-08T11:53:38;18.42;;;7.80;;
72483;SDS011;74199;52.014;5.430;2024-03-08T11:56:09;13.95;;;8.10;;
72483;SDS011;74199;52.014;5.430;2024-03-08T11:58:40;12.15;;;8.07;;
72483;SDS011;74199;52.014;5.430;2024-03-08T12:01:11;13.27;;;8.10;;
72483;SDS011;74199;52.014;5.430;2024-03-08T12:03:43;12.68;;;8.20;;
72483;SDS011;74199;52.014;5.430;2024-03-08T12:06:10;13.02;;;7.30;;
72483;SDS011;74199;52.014;5.430;2024-03-08T12:08:39;12.05;;;8.18;;
72483;SDS011;74199;52.014;5.430;2024-03-08T12:11:07;15.15;;;8.10;;
72483;SDS011;74199;52.014;5.430;2024-03-08T12:13:36;13.73;;;8.30;;
72483;SDS011;74199;52.014;5.430;2024-03-08T12:16:04;11.57;;;7.45;;
72483;SDS011;74199;52.014;5.430;2024-03-08T12:18:37;12.75;;;7.28;;
72483;SDS011;74199;52.014;5.430;2024-03-08T12:21:06;12.32;;;7.43;;
72483;SDS011;74199;52.014;5.430;2024-03-08T12:23:34;13.05;;;8.02;;
72483;SDS011;74199;52.014;5.430;2024-03-08T12:26:14;13.20;;;7.90;;
72483;SDS011;74199;52.014;5.430;2024-03-08T12:28:43;13.77;;;8.27;;
72483;SDS011;74199;52.014;5.430;2024-03-08T12:31:17;14.68;;;8.57;;
72483;SDS011;74199;52.014;5.430;2024-03-08T12:33:48;12.82;;;7.80;;
72483;SDS011;74199;52.014;5.430;2024-03-08T12:36:25;12.10;;;7.72;;
72483;SDS011;74199;52.014;5.430;2024-03-08T12:38:53;14.23;;;7.82;;
72483;SDS011;74199;52.014;5.430;2024-03-08T12:41:23;11.57;;;7.47;;
72483;SDS011;74199;52.014;5.430;2024-03-08T12:43:50;13.63;;;7.70;;
72483;SDS011;74199;52.014;5.430;2024-03-08T12:46:17;12.32;;;7.32;;
72483;SDS011;74199;52.014;5.430;2024-03-08T12:48:48;11.45;;;7.25;;
72483;SDS011;74199;52.014;5.430;2024-03-08T12:51:16;13.13;;;7.25;;
72483;SDS011;74199;52.014;5.430;2024-03-08T12:53:44;11.80;;;7.15;;
72483;SDS011;74199;52.014;5.430;2024-03-08T12:56:19;12.45;;;7.50;;
72483;SDS011;74199;52.014;5.430;2024-03-08T12:58:56;12.88;;;7.35;;
72483;SDS011;74199;52.014;5.430;2024-03-08T13:01:23;11.82;;;6.88;;
72483;SDS011;74199;52.014;5.430;2024-03-08T13:03:50;13.43;;;7.65;;
72483;SDS011;74199;52.014;5.430;2024-03-08T13:06:17;12.68;;;7.45;;
72483;SDS011;74199;52.014;5.430;2024-03-08T13:08:45;11.88;;;7.47;;
72483;SDS011;74199;52.014;5.430;2024-03-08T13:11:14;13.75;;;8.50;;
72483;SDS011;74199;52.014;5.430;2024-03-08T13:13:41;13.13;;;7.80;;
72483;SDS011;74199;52.014;5.430;2024-03-08T13:16:08;13.05;;;7.75;;
72483;SDS011;74199;52.014;5.430;2024-03-08T13:18:35;12.57;;;8.07;;
72483;SDS011;74199;52.014;5.430;2024-03-08T13:21:03;10.77;;;7.40;;
72483;SDS011;74199;52.014;5.430;2024-03-08T13:23:34;12.73;;;7.32;;
72483;SDS011;74199;52.014;5.430;2024-03-08T13:26:06;12.35;;;7.38;;
72483;SDS011;74199;52.014;5.430;2024-03-08T13:28:33;11.82;;;7.03;;
72483;SDS011;74199;52.014;5.430;2024-03-08T13:31:04;11.63;;;7.53;;
72483;SDS011;74199;52.014;5.430;2024-03-08T13:33:36;13.15;;;7.63;;
72483;SDS011;74199;52.014;5.430;2024-03-08T13:36:05;10.68;;;6.88;;
72483;SDS011;74199;52.014;5.430;2024-03-08T13:38:41;13.60;;;7.97;;
72483;SDS011;74199;52.014;5.430;2024-03-08T13:41:14;12.20;;;7.47;;
72483;SDS011;74199;52.014;5.430;2024-03-08T13:43:47;12.52;;;7.28;;
72483;SDS011;74199;52.014;5.430;2024-03-08T13:46:17;12.13;;;7.40;;
72483;SDS011;74199;52.014;5.430;2024-03-08T13:48:44;12.18;;;7.93;;
72483;SDS011;74199;52.014;5.430;2024-03-08T13:51:11;11.68;;;7.35;;
72483;SDS011;74199;52.014;5.430;2024-03-08T13:53:41;11.73;;;7.30;;
72483;SDS011;74199;52.014;5.430;2024-03-08T13:56:09;10.70;;;7.10;;
72483;SDS011;74199;52.014;5.430;2024-03-08T13:58:38;12.23;;;7.40;;
72483;SDS011;74199;52.014;5.430;2024-03-08T14:01:07;10.95;;;7.07;;
72483;SDS011;74199;52.014;5.430;2024-03-08T14:03:38;10.27;;;6.78;;
72483;SDS011;74199;52.014;5.430;2024-03-08T14:06:08;11.13;;;7.05;;
72483;SDS011;74199;52.014;5.430;2024-03-08T14:08:36;9.73;;;6.35;;
72483;SDS011;74199;52.014;5.430;2024-03-08T14:11:04;11.90;;;7.05;;
72483;SDS011;74199;52.014;5.430;2024-03-08T14:13:42;10.55;;;7.18;;
72483;SDS011;74199;52.014;5.430;2024-03-08T14:16:12;12.13;;;7.75;;
72483;SDS011;74199;52.014;5.430;2024-03-08T14:18:39;12.57;;;6.90;;
72483;SDS011;74199;52.014;5.430;2024-03-08T14:21:07;11.38;;;6.93;;
72483;SDS011;74199;52.014;5.430;2024-03-08T14:23:37;10.38;;;7.10;;
72483;SDS011;74199;52.014;5.430;2024-03-08T14:26:07;10.38;;;6.70;;
72483;SDS011;74199;52.014;5.430;2024-03-08T14:28:35;10.48;;;6.78;;
72483;SDS011;74199;52.014;5.430;2024-03-08T14:31:02;12.23;;;6.80;;
72483;SDS011;74199;52.014;5.430;2024-03-08T14:33:33;11.30;;;6.15;;
72483;SDS011;74199;52.014;5.430;2024-03-08T14:36:00;13.68;;;7.32;;
72483;SDS011;74199;52.014;5.430;2024-03-08T14:38:28;11.85;;;6.82;;
72483;SDS011;74199;52.014;5.430;2024-03-08T14:40:55;11.48;;;7.22;;
72483;SDS011;74199;52.014;5.430;2024-03-08T14:43:22;11.73;;;7.43;;
72483;SDS011;74199;52.014;5.430;2024-03-08T14:45:50;8.32;;;6.15;;